Jupiter Spirit — A8ZC2 — position and weather

sailwx.info

Track history (hours):
 
Tides and Currents Weather Stations Pressure Air Temp Water Temp Dewpoint Dewpoint Depression Visibility Wind Speed Wind Dir Waves Ship Positions

Jupiter Spirit

Last reported at 2015-Jul-07 10:31 UTC. Time now 2015-Jul-08 04:20 UTC.
Position N 36°22' W 008°23'.

Length 183 m; draft 9 m.

Type: Cargo ship. MMSI: 636015173.

Date/timePositionNaut miles runAvg speedWind from/ knotsBaromVisibWave heightAir tempDewpointWater temp
2015-Jul-07 10:31N 36°22' W 008°23'1415.0
2015-Jul-07 09:33N 36°26' W 008°41'1514.9
2015-Jul-07 08:33N 36°30' W 008°59'1514.7
2015-Jul-07 07:33N 36°33' W 009°16'1515.0
2015-Jul-07 06:33N 36°44' W 009°29'1414.4
2015-Jul-07 05:33N 36°57' W 009°37'1515.0
2015-Jul-07 04:33N 37°12' W 009°41'1515.0
2015-Jul-07 03:33N 37°27' W 009°45'1514.9
2015-Jul-07 02:33N 37°41' W 009°50'1514.8
2015-Jul-07 01:33N 37°56' W 009°53'1515.1
2015-Jul-07 00:34N 38°10' W 009°60'1515.0
2015-Jul-06 23:33N 38°25' W 010°02'1514.7
2015-Jul-06 22:33N 38°39' W 010°06'1515.0
2015-Jul-06 21:33N 38°54' W 010°07'1615.8
2015-Jul-06 20:33N 39°10' W 010°07'1515.3
2015-Jul-06 19:34N 39°25' W 010°07'1515.2
2015-Jul-06 18:33N 39°40' W 010°07'1515.3
2015-Jul-06 17:33N 39°56' W 010°07'1515.1
2015-Jul-06 16:33N 40°11' W 010°07'1515.0
2015-Jul-06 15:33N 40°26' W 010°07'1515.2
2015-Jul-06 14:34N 40°41' W 010°09'1515.1
2015-Jul-06 13:34N 40°56' W 010°10'1615.4
2015-Jul-06 12:33N 41°11' W 010°07'1515.2
2015-Jul-06 11:33N 41°26' W 010°07'2015.2
2015-Jul-06 10:13N 41°47' W 010°07'1014.9
2015-Jul-06 09:33N 41°57' W 010°07'6014.9
2015-Jul-06 05:32N 42°56' W 010°07'50914.1
2015-Jul-04 17:18N 50°08' W 003°35'1013.5
2015-Jul-04 16:33N 50°17' W 003°27'1111.2
2015-Jul-04 15:33N 50°25' W 003°15'1615.6
2015-Jul-04 14:33N 50°28' W 002°51'1616.0
2015-Jul-04 13:33N 50°27' W 002°25'1515.2
2015-Jul-04 12:34N 50°28' W 002°02'2613.0
2015-Jul-04 10:33N 50°28' W 001°21'1111.1
2015-Jul-04 09:33N 50°28' W 001°03'1211.3
2015-Jul-04 08:30N 50°27' W 000°45'1513.1
2015-Jul-04 07:21N 50°30' W 000°21'1214.7
2015-Jul-04 06:31N 50°32' W 000°03'1515.8
2015-Jul-04 05:34N 50°35' E 000°21'1615.6
2015-Jul-04 04:34N 50°42' E 000°43'1514.9
2015-Jul-04 03:32N 50°51' E 001°02'1413.6
2015-Jul-04 02:32N 50°60' E 001°19'1212.3
2015-Jul-04 01:34N 51°07' E 001°34'1211.9
2015-Jul-04 00:34N 51°15' E 001°48'1313.1
2015-Jul-03 23:33N 51°25' E 002°03'1414.2
2015-Jul-03 22:33N 51°22' E 002°25'1414.3
2015-Jul-03 21:33N 51°22' E 002°48'1515.4
2015-Jul-03 20:33N 51°24' E 003°12'1515.0
2015-Jul-03 19:33N 51°26' E 003°36'1211.8
2015-Jul-03 18:34N 51°21' E 003°53'1110.9
2015-Jul-03 17:33N 51°24' E 004°11'9 8.5
2015-Jul-03 16:33N 51°17' E 004°19'2 2.0
2015-Jul-03 15:34N 51°16' E 004°17'2 2.0
2015-Jul-03 14:33N 51°17' E 004°14'0 0.4
2015-Jul-03 13:32N 51°16' E 004°13'0 0.0
2015-Jul-03 12:32N 51°16' E 004°13'0 0.0
2015-Jul-03 11:32N 51°16' E 004°13'0 0.0
2015-Jul-03 10:32N 51°16' E 004°13'0 0.0
2015-Jul-03 09:32N 51°16' E 004°13'0 0.0
2015-Jul-03 08:32N 51°16' E 004°13'0 0.0
2015-Jul-03 07:32N 51°16' E 004°13'0 0.0
2015-Jul-03 06:32N 51°16' E 004°13'0 0.0
2015-Jul-03 05:32N 51°16' E 004°13'0 0.0
2015-Jul-03 04:32N 51°16' E 004°13'0 0.0
2015-Jul-03 03:32N 51°16' E 004°13'0 0.0
2015-Jul-03 02:32N 51°16' E 004°13'0 0.0
2015-Jul-03 01:32N 51°16' E 004°13'0 0.0
2015-Jul-03 00:32N 51°16' E 004°13'0 0.0
2015-Jul-02 23:32N 51°16' E 004°13'0 0.0
2015-Jul-02 22:32N 51°16' E 004°13'0 0.0
2015-Jul-02 21:32N 51°16' E 004°13'0 0.0
2015-Jul-02 20:32N 51°16' E 004°13'1 1.1
2015-Jul-02 19:34N 51°16' E 004°15'1 1.3
2015-Jul-02 18:34N 51°16' E 004°17'4 4.5
2015-Jul-02 17:33N 51°20' E 004°16'9 8.8
2015-Jul-02 16:33N 51°23' E 004°03'7 7.4
2015-Jul-02 15:33N 51°21' E 003°51'10 9.5
2015-Jul-02 14:34N 51°26' E 003°39'1414.0
2015-Jul-02 13:33N 51°25' E 003°16'9 9.3
2015-Jul-02 12:33N 51°31' E 003°05'1514.7
2015-Jul-02 11:33N 51°45' E 003°13'5 3.9
2015-Jul-02 10:11N 51°50' E 003°10'1 0.8
2015-Jul-02 09:29N 51°50' E 003°11'1 1.1
2015-Jul-02 08:33N 51°51' E 003°12'1410.7
2015-Jul-02 07:17N 52°03' E 003°21'1214.2
2015-Jul-02 06:27N 52°15' E 003°24'1415.0
2015-Jul-02 05:30N 52°28' E 003°33'1314.3
2015-Jul-02 04:33N 52°41' E 003°41'1413.5
2015-Jul-02 03:33N 52°52' E 003°53'1413.7
2015-Jul-02 02:34N 53°02' E 004°08'1514.5
2015-Jul-02 01:34N 53°13' E 004°25'1615.6
2015-Jul-02 00:34N 53°27' E 004°37'1616.1
2015-Jul-01 23:34N 53°34' E 005°01'1615.9
2015-Jul-01 22:33N 53°39' E 005°26'1515.1
2015-Jul-01 21:34N 53°43' E 005°51'1414.2
2015-Jul-01 20:33N 53°48' E 006°14'1413.8
2015-Jul-01 19:33N 53°52' E 006°36'3314.6
2015-Jul-01 17:16N 53°59' E 007°31'2112.2
2015-Jul-01 15:33N 53°50' E 008°04'1717.4
2015-Jul-01 14:33N 53°39' E 008°25'6 6.2
2015-Jul-01 13:32N 53°34' E 008°33'0 0.5
2015-Jul-01 12:32N 53°35' E 008°33'0 0.0
2015-Jul-01 11:14N 53°35' E 008°33'0 0.0
2015-Jul-01 10:26N 53°35' E 008°33'0 0.0
2015-Jul-01 09:33N 53°35' E 008°33'0 0.0
2015-Jul-01 08:32N 53°35' E 008°33'0 0.0
2015-Jul-01 07:32N 53°35' E 008°33'0 0.0
2015-Jul-01 06:17N 53°35' E 008°33'0 0.0
2015-Jul-01 05:32N 53°35' E 008°33'0 0.0
2015-Jul-01 04:33N 53°35' E 008°33'0 0.0
2015-Jul-01 03:20N 53°35' E 008°33'0 0.0
2015-Jul-01 02:29N 53°35' E 008°33'0 0.0
2015-Jul-01 01:29N 53°35' E 008°33'0 0.0
2015-Jul-01 00:32N 53°35' E 008°33'0 0.0
2015-Jun-30 23:29N 53°35' E 008°33'0 0.0
2015-Jun-30 22:14N 53°35' E 008°33'0 0.0
2015-Jun-30 20:32N 53°35' E 008°33'0 0.0
2015-Jun-30 19:29N 53°35' E 008°33'0 0.0
2015-Jun-30 18:14N 53°35' E 008°33'0 0.0
2015-Jun-30 17:23N 53°35' E 008°33'0 0.0
2015-Jun-30 16:32N 53°35' E 008°33'0 0.0
2015-Jun-30 14:26N 53°35' E 008°33'0 0.0
2015-Jun-30 13:29N 53°35' E 008°33'0 0.0
2015-Jun-30 12:32N 53°35' E 008°33'0 0.0
2015-Jun-30 11:23N 53°35' E 008°33'0 0.0
2015-Jun-30 10:29N 53°35' E 008°33'0 0.5
2015-Jun-30 09:33N 53°34' E 008°33'4 4.3
2015-Jun-30 08:33N 53°37' E 008°28'1615.6
2015-Jun-30 07:33N 53°48' E 008°08'1110.8
2015-Jun-30 06:33N 53°53' E 007°53'7 6.9
2015-Jun-30 05:33N 53°60' E 007°48'1 1.1
2015-Jun-30 04:33N 54°00' E 007°46'1 0.6
2015-Jun-30 03:33N 54°00' E 007°45'2 1.7
2015-Jun-30 02:33N 54°00' E 007°48'1111.1
2015-Jun-30 01:33N 54°01' E 008°07'1716.9
2015-Jun-30 00:33N 53°58' E 008°35'1615.7
2015-Jun-29 23:33N 53°51' E 008°59'1111.3
2015-Jun-29 22:33N 53°51' E 009°18'1313.4
2015-Jun-29 21:33N 53°40' E 009°31'9 9.0
2015-Jun-29 20:33N 53°34' E 009°42'9 8.9
2015-Jun-29 19:33N 53°33' E 009°56'1 1.4
2015-Jun-29 18:32N 53°31' E 009°58'0 0.0
2015-Jun-29 17:28N 53°31' E 009°58'0 0.0
2015-Jun-29 16:28N 53°31' E 009°58'0 0.0
2015-Jun-29 15:32N 53°31' E 009°58'0 0.0
2015-Jun-29 14:32N 53°31' E 009°58'0 0.0
2015-Jun-29 13:32N 53°31' E 009°58'0 0.0
2015-Jun-29 12:28N 53°31' E 009°58'0 0.0
2015-Jun-29 11:32N 53°31' E 009°58'0 0.0
2015-Jun-29 10:32N 53°31' E 009°58'0 0.0
2015-Jun-29 09:29N 53°31' E 009°58'0 0.0
2015-Jun-29 08:15N 53°31' E 009°58'0 0.0
2015-Jun-29 07:27N 53°31' E 009°58'0 0.0
2015-Jun-29 06:28N 53°31' E 009°58'0 0.0
2015-Jun-29 05:27N 53°31' E 009°58'0 0.0
2015-Jun-29 04:21N 53°31' E 009°58'1 1.3
2015-Jun-29 03:33N 53°32' E 009°57'7 6.9
2015-Jun-29 02:33N 53°34' E 009°46'1110.8
2015-Jun-29 01:33N 53°40' E 009°31'1312.7
2015-Jun-29 00:34N 53°51' E 009°20'1010.0
2015-Jun-28 23:33N 53°52' E 009°03'1313.5
2015-Jun-28 22:33N 53°55' E 008°41'1616.2
2015-Jun-28 21:33N 53°60' E 008°14'6 5.6
2015-Jun-28 20:33N 54°02' E 008°06'4 4.0
2015-Jun-28 19:33N 54°03' E 008°12'0 0.0
2015-Jun-28 18:33N 54°03' E 008°12'0 0.0
2015-Jun-28 17:33N 54°03' E 008°12'0 0.0
2015-Jun-28 15:30N 54°03' E 008°12'0 0.0
2015-Jun-28 11:30N 54°03' E 008°12'0 0.0
2015-Jun-28 10:27N 54°03' E 008°12'0 0.0
2015-Jun-28 09:21N 54°03' E 008°12'0 0.0
2015-Jun-28 08:33N 54°03' E 008°12'0 0.0
2015-Jun-28 07:33N 54°03' E 008°12'0 0.0
2015-Jun-28 06:33N 54°03' E 008°12'0 0.0
2015-Jun-27 11:33N 54°03' E 008°12'0 0.0
2015-Jun-27 10:33N 54°03' E 008°12'  
Track history (hours):
 
Tides and Currents Weather Stations Pressure Air Temp Water Temp Dewpoint Dewpoint Depression Visibility Wind Speed Wind Dir Waves Ship Positions

Jupiter Spirit

Last reported at 2015-Jul-07 10:31 UTC. Time now 2015-Jul-08 04:20 UTC.
Position N 36°22' W 008°23'.

Length 183 m; draft 9 m.

Type: Cargo ship. MMSI: 636015173.

Date/timePositionNaut miles runAvg speedWind from/ knotsBaromVisibWave heightAir tempDewpointWater temp
2015-Jul-07 10:31N 36°22' W 008°23'1415.0
2015-Jul-07 09:33N 36°26' W 008°41'1514.9
2015-Jul-07 08:33N 36°30' W 008°59'1514.7
2015-Jul-07 07:33N 36°33' W 009°16'1515.0
2015-Jul-07 06:33N 36°44' W 009°29'1414.4
2015-Jul-07 05:33N 36°57' W 009°37'1515.0
2015-Jul-07 04:33N 37°12' W 009°41'1515.0
2015-Jul-07 03:33N 37°27' W 009°45'1514.9
2015-Jul-07 02:33N 37°41' W 009°50'1514.8
2015-Jul-07 01:33N 37°56' W 009°53'1515.1
2015-Jul-07 00:34N 38°10' W 009°60'1515.0
2015-Jul-06 23:33N 38°25' W 010°02'1514.7
2015-Jul-06 22:33N 38°39' W 010°06'1515.0
2015-Jul-06 21:33N 38°54' W 010°07'1615.8
2015-Jul-06 20:33N 39°10' W 010°07'1515.3
2015-Jul-06 19:34N 39°25' W 010°07'1515.2
2015-Jul-06 18:33N 39°40' W 010°07'1515.3
2015-Jul-06 17:33N 39°56' W 010°07'1515.1
2015-Jul-06 16:33N 40°11' W 010°07'1515.0
2015-Jul-06 15:33N 40°26' W 010°07'1515.2
2015-Jul-06 14:34N 40°41' W 010°09'1515.1
2015-Jul-06 13:34N 40°56' W 010°10'1615.4
2015-Jul-06 12:33N 41°11' W 010°07'1515.2
2015-Jul-06 11:33N 41°26' W 010°07'2015.2
2015-Jul-06 10:13N 41°47' W 010°07'1014.9
2015-Jul-06 09:33N 41°57' W 010°07'6014.9
2015-Jul-06 05:32N 42°56' W 010°07'50914.1
2015-Jul-04 17:18N 50°08' W 003°35'1013.5
2015-Jul-04 16:33N 50°17' W 003°27'1111.2
2015-Jul-04 15:33N 50°25' W 003°15'1615.6
2015-Jul-04 14:33N 50°28' W 002°51'1616.0
2015-Jul-04 13:33N 50°27' W 002°25'1515.2
2015-Jul-04 12:34N 50°28' W 002°02'2613.0
2015-Jul-04 10:33N 50°28' W 001°21'1111.1
2015-Jul-04 09:33N 50°28' W 001°03'1211.3
2015-Jul-04 08:30N 50°27' W 000°45'1513.1
2015-Jul-04 07:21N 50°30' W 000°21'1214.7
2015-Jul-04 06:31N 50°32' W 000°03'1515.8
2015-Jul-04 05:34N 50°35' E 000°21'1615.6
2015-Jul-04 04:34N 50°42' E 000°43'1514.9
2015-Jul-04 03:32N 50°51' E 001°02'1413.6
2015-Jul-04 02:32N 50°60' E 001°19'1212.3
2015-Jul-04 01:34N 51°07' E 001°34'1211.9
2015-Jul-04 00:34N 51°15' E 001°48'1313.1
2015-Jul-03 23:33N 51°25' E 002°03'1414.2
2015-Jul-03 22:33N 51°22' E 002°25'1414.3
2015-Jul-03 21:33N 51°22' E 002°48'1515.4
2015-Jul-03 20:33N 51°24' E 003°12'1515.0
2015-Jul-03 19:33N 51°26' E 003°36'1211.8
2015-Jul-03 18:34N 51°21' E 003°53'1110.9
2015-Jul-03 17:33N 51°24' E 004°11'9 8.5
2015-Jul-03 16:33N 51°17' E 004°19'2 2.0
2015-Jul-03 15:34N 51°16' E 004°17'2 2.0
2015-Jul-03 14:33N 51°17' E 004°14'0 0.4
2015-Jul-03 13:32N 51°16' E 004°13'0 0.0
2015-Jul-03 12:32N 51°16' E 004°13'0 0.0
2015-Jul-03 11:32N 51°16' E 004°13'0 0.0
2015-Jul-03 10:32N 51°16' E 004°13'0 0.0
2015-Jul-03 09:32N 51°16' E 004°13'0 0.0
2015-Jul-03 08:32N 51°16' E 004°13'0 0.0
2015-Jul-03 07:32N 51°16' E 004°13'0 0.0
2015-Jul-03 06:32N 51°16' E 004°13'0 0.0
2015-Jul-03 05:32N 51°16' E 004°13'0 0.0
2015-Jul-03 04:32N 51°16' E 004°13'0 0.0
2015-Jul-03 03:32N 51°16' E 004°13'0 0.0
2015-Jul-03 02:32N 51°16' E 004°13'0 0.0
2015-Jul-03 01:32N 51°16' E 004°13'0 0.0
2015-Jul-03 00:32N 51°16' E 004°13'0 0.0
2015-Jul-02 23:32N 51°16' E 004°13'0 0.0
2015-Jul-02 22:32N 51°16' E 004°13'0 0.0
2015-Jul-02 21:32N 51°16' E 004°13'0 0.0
2015-Jul-02 20:32N 51°16' E 004°13'1 1.1
2015-Jul-02 19:34N 51°16' E 004°15'1 1.3
2015-Jul-02 18:34N 51°16' E 004°17'4 4.5
2015-Jul-02 17:33N 51°20' E 004°16'9 8.8
2015-Jul-02 16:33N 51°23' E 004°03'7 7.4
2015-Jul-02 15:33N 51°21' E 003°51'10 9.5
2015-Jul-02 14:34N 51°26' E 003°39'1414.0
2015-Jul-02 13:33N 51°25' E 003°16'9 9.3
2015-Jul-02 12:33N 51°31' E 003°05'1514.7
2015-Jul-02 11:33N 51°45' E 003°13'5 3.9
2015-Jul-02 10:11N 51°50' E 003°10'1 0.8
2015-Jul-02 09:29N 51°50' E 003°11'1 1.1
2015-Jul-02 08:33N 51°51' E 003°12'1410.7
2015-Jul-02 07:17N 52°03' E 003°21'1214.2
2015-Jul-02 06:27N 52°15' E 003°24'1415.0
2015-Jul-02 05:30N 52°28' E 003°33'1314.3
2015-Jul-02 04:33N 52°41' E 003°41'1413.5
2015-Jul-02 03:33N 52°52' E 003°53'1413.7
2015-Jul-02 02:34N 53°02' E 004°08'1514.5
2015-Jul-02 01:34N 53°13' E 004°25'1615.6
2015-Jul-02 00:34N 53°27' E 004°37'1616.1
2015-Jul-01 23:34N 53°34' E 005°01'1615.9
2015-Jul-01 22:33N 53°39' E 005°26'1515.1
2015-Jul-01 21:34N 53°43' E 005°51'1414.2
2015-Jul-01 20:33N 53°48' E 006°14'1413.8
2015-Jul-01 19:33N 53°52' E 006°36'3314.6
2015-Jul-01 17:16N 53°59' E 007°31'2112.2
2015-Jul-01 15:33N 53°50' E 008°04'1717.4
2015-Jul-01 14:33N 53°39' E 008°25'6 6.2
2015-Jul-01 13:32N 53°34' E 008°33'0 0.5
2015-Jul-01 12:32N 53°35' E 008°33'0 0.0
2015-Jul-01 11:14N 53°35' E 008°33'0 0.0
2015-Jul-01 10:26N 53°35' E 008°33'0 0.0
2015-Jul-01 09:33N 53°35' E 008°33'0 0.0
2015-Jul-01 08:32N 53°35' E 008°33'0 0.0
2015-Jul-01 07:32N 53°35' E 008°33'0 0.0
2015-Jul-01 06:17N 53°35' E 008°33'0 0.0
2015-Jul-01 05:32N 53°35' E 008°33'0 0.0
2015-Jul-01 04:33N 53°35' E 008°33'0 0.0
2015-Jul-01 03:20N 53°35' E 008°33'0 0.0
2015-Jul-01 02:29N 53°35' E 008°33'0 0.0
2015-Jul-01 01:29N 53°35' E 008°33'0 0.0
2015-Jul-01 00:32N 53°35' E 008°33'0 0.0
2015-Jun-30 23:29N 53°35' E 008°33'0 0.0
2015-Jun-30 22:14N 53°35' E 008°33'0 0.0
2015-Jun-30 20:32N 53°35' E 008°33'0 0.0
2015-Jun-30 19:29N 53°35' E 008°33'0 0.0
2015-Jun-30 18:14N 53°35' E 008°33'0 0.0
2015-Jun-30 17:23N 53°35' E 008°33'0 0.0
2015-Jun-30 16:32N 53°35' E 008°33'0 0.0
2015-Jun-30 14:26N 53°35' E 008°33'0 0.0
2015-Jun-30 13:29N 53°35' E 008°33'0 0.0
2015-Jun-30 12:32N 53°35' E 008°33'0 0.0
2015-Jun-30 11:23N 53°35' E 008°33'0 0.0
2015-Jun-30 10:29N 53°35' E 008°33'0 0.5
2015-Jun-30 09:33N 53°34' E 008°33'4 4.3
2015-Jun-30 08:33N 53°37' E 008°28'1615.6
2015-Jun-30 07:33N 53°48' E 008°08'1110.8
2015-Jun-30 06:33N 53°53' E 007°53'7 6.9
2015-Jun-30 05:33N 53°60' E 007°48'1 1.1
2015-Jun-30 04:33N 54°00' E 007°46'1 0.6
2015-Jun-30 03:33N 54°00' E 007°45'2 1.7
2015-Jun-30 02:33N 54°00' E 007°48'1111.1
2015-Jun-30 01:33N 54°01' E 008°07'1716.9
2015-Jun-30 00:33N 53°58' E 008°35'1615.7
2015-Jun-29 23:33N 53°51' E 008°59'1111.3
2015-Jun-29 22:33N 53°51' E 009°18'1313.4
2015-Jun-29 21:33N 53°40' E 009°31'9 9.0
2015-Jun-29 20:33N 53°34' E 009°42'9 8.9
2015-Jun-29 19:33N 53°33' E 009°56'1 1.4
2015-Jun-29 18:32N 53°31' E 009°58'0 0.0
2015-Jun-29 17:28N 53°31' E 009°58'0 0.0
2015-Jun-29 16:28N 53°31' E 009°58'0 0.0
2015-Jun-29 15:32N 53°31' E 009°58'0 0.0
2015-Jun-29 14:32N 53°31' E 009°58'0 0.0
2015-Jun-29 13:32N 53°31' E 009°58'0 0.0
2015-Jun-29 12:28N 53°31' E 009°58'0 0.0
2015-Jun-29 11:32N 53°31' E 009°58'0 0.0
2015-Jun-29 10:32N 53°31' E 009°58'0 0.0
2015-Jun-29 09:29N 53°31' E 009°58'0 0.0
2015-Jun-29 08:15N 53°31' E 009°58'0 0.0
2015-Jun-29 07:27N 53°31' E 009°58'0 0.0
2015-Jun-29 06:28N 53°31' E 009°58'0 0.0
2015-Jun-29 05:27N 53°31' E 009°58'0 0.0
2015-Jun-29 04:21N 53°31' E 009°58'1 1.3
2015-Jun-29 03:33N 53°32' E 009°57'7 6.9
2015-Jun-29 02:33N 53°34' E 009°46'1110.8
2015-Jun-29 01:33N 53°40' E 009°31'1312.7
2015-Jun-29 00:34N 53°51' E 009°20'1010.0
2015-Jun-28 23:33N 53°52' E 009°03'1313.5
2015-Jun-28 22:33N 53°55' E 008°41'1616.2
2015-Jun-28 21:33N 53°60' E 008°14'6 5.6
2015-Jun-28 20:33N 54°02' E 008°06'4 4.0
2015-Jun-28 19:33N 54°03' E 008°12'0 0.0
2015-Jun-28 18:33N 54°03' E 008°12'0 0.0
2015-Jun-28 17:33N 54°03' E 008°12'0 0.0
2015-Jun-28 15:30N 54°03' E 008°12'0 0.0
2015-Jun-28 11:30N 54°03' E 008°12'0 0.0
2015-Jun-28 10:27N 54°03' E 008°12'0 0.0
2015-Jun-28 09:21N 54°03' E 008°12'0 0.0
2015-Jun-28 08:33N 54°03' E 008°12'0 0.0
2015-Jun-28 07:33N 54°03' E 008°12'0 0.0
2015-Jun-28 06:33N 54°03' E 008°12'0 0.0
2015-Jun-27 11:33N 54°03' E 008°12'0 0.0
2015-Jun-27 10:33N 54°03' E 008°12'  

Dump ship's entire track history